Time;durP1;ratioP1;P1;durP2;ratioP2;P2;SDS_P1;SDS_P2;PMS_P1;PMS_P2;Temp;Humidity;BMP_temperature;BMP_pressure;BME280_temperature;BME280_humidity;BME280_pressure;Samples;Min_cycle;Max_cycle;Signal;HPM_P1;HPM_P2
2022/05/18 00:00:13;;;;;;;4.00;1.60;;;8.80;69.70;;;;;;4991126;28;20237;-68
2022/05/18 00:03:04;;;;;;;2.80;1.40;;;8.90;69.90;;;;;;5002577;28;20227;-69
2022/05/18 00:05:54;;;;;;;4.70;2.37;;;9.10;69.90;;;;;;4992367;28;20238;-70
2022/05/18 00:08:42;;;;;;;3.13;1.60;;;8.90;70.30;;;;;;4995709;28;20610;-68
2022/05/18 00:11:32;;;;;;;2.10;1.30;;;9.10;70.30;;;;;;4990482;28;20890;-70
2022/05/18 00:14:22;;;;;;;2.97;1.70;;;9.10;70.60;;;;;;4995383;28;20246;-69
2022/05/18 00:17:12;;;;;;;4.93;1.87;;;9.00;71.00;;;;;;4991963;28;20325;-67
2022/05/18 00:20:04;;;;;;;2.80;1.40;;;8.90;71.80;;;;;;5004945;28;20223;-67
2022/05/18 00:22:54;;;;;;;2.10;1.60;;;8.80;72.30;;;;;;4992277;28;20232;-69
2022/05/18 00:25:44;;;;;;;5.17;1.47;;;9.00;72.30;;;;;;4992033;28;20465;-68
2022/05/18 00:28:33;;;;;;;2.43;1.23;;;9.00;72.20;;;;;;4995449;28;21115;-67
2022/05/18 00:31:22;;;;;;;4.93;1.40;;;9.00;72.70;;;;;;4998014;28;20234;-67
2022/05/18 00:34:12;;;;;;;2.60;1.43;;;8.90;73.10;;;;;;4991767;28;20217;-68
2022/05/18 00:37:01;;;;;;;5.63;1.40;;;8.90;74.10;;;;;;4996863;28;20338;-69
2022/05/18 00:39:50;;;;;;;2.47;1.47;;;9.10;73.60;;;;;;4994659;28;21297;-68
2022/05/18 00:42:38;;;;;;;4.73;1.50;;;8.70;74.40;;;;;;4988901;28;20228;-68
2022/05/18 00:45:27;;;;;;;6.73;1.60;;;8.70;75.30;;;;;;4997439;28;20386;-69
2022/05/18 00:48:16;;;;;;;2.43;1.50;;;8.50;75.70;;;;;;4991710;28;20230;-68
2022/05/18 00:51:11;;;;;;;4.23;1.70;;;8.50;76.60;;;;;;4993415;28;20249;-68
2022/05/18 00:54:06;;;;;;;3.57;1.50;;;8.50;77.20;;;;;;5003436;28;20215;-67
2022/05/18 00:56:59;;;;;;;3.67;1.67;;;8.40;78.20;;;;;;4992450;28;20235;-68
2022/05/18 00:59:53;;;;;;;1.80;1.43;;;8.50;78.70;;;;;;4992693;28;20227;-68
2022/05/18 01:02:46;;;;;;;3.53;1.40;;;8.40;79.70;;;;;;4992158;28;20301;-69
2022/05/18 01:05:38;;;;;;;3.90;1.50;;;8.50;80.50;;;;;;4989717;28;20280;-68
2022/05/18 01:08:34;;;;;;;3.93;1.57;;;8.30;81.40;;;;;;4987872;28;20227;-68
2022/05/18 01:11:23;;;;;;;2.73;1.43;;;8.10;83.10;;;;;;4990535;28;20226;-68
2022/05/18 01:14:14;;;;;;;1.83;1.60;;;8.30;83.40;;;;;;4988755;28;20222;-67
2022/05/18 01:17:03;;;;;;;4.10;1.40;;;8.20;84.20;;;;;;4992545;28;20234;-68
2022/05/18 01:19:54;;;;;;;5.73;1.83;;;8.20;84.80;;;;;;4991302;28;20254;-68
2022/05/18 01:22:49;;;;;;;3.87;1.53;;;8.30;85.50;;;;;;4987389;28;20282;-66
2022/05/18 01:25:54;;;;;;;4.10;1.70;;;8.20;85.60;;;;;;4992856;28;20214;-68
2022/05/18 01:28:52;;;;;;;2.43;1.40;;;8.10;86.70;;;;;;4991409;28;20225;-68
2022/05/18 01:31:50;;;;;;;1.80;1.50;;;8.20;87.20;;;;;;5002647;28;20264;-69
2022/05/18 01:34:42;;;;;;;4.20;1.70;;;8.10;88.20;;;;;;5004233;28;20229;-69
2022/05/18 01:37:30;;;;;;;3.83;1.37;;;8.10;88.50;;;;;;4990117;28;20230;-70
2022/05/18 01:40:27;;;;;;;3.23;1.30;;;8.10;89.30;;;;;;5008157;28;20233;-67
2022/05/18 01:43:21;;;;;;;2.60;1.30;;;8.10;90.30;;;;;;4990729;28;20236;-68
2022/05/18 01:46:15;;;;;;;3.30;1.33;;;7.90;91.00;;;;;;4989752;28;20218;-67
2022/05/18 01:49:04;;;;;;;1.80;1.37;;;7.80;91.60;;;;;;5007178;28;20231;-67
2022/05/18 01:51:55;;;;;;;3.37;1.40;;;7.70;93.30;;;;;;4995467;28;20285;-67
2022/05/18 01:54:45;;;;;;;3.00;1.30;;;7.70;93.70;;;;;;4994842;28;20546;-67
2022/05/18 01:57:36;;;;;;;2.50;1.37;;;7.70;94.90;;;;;;4995440;28;20226;-69
2022/05/18 02:00:26;;;;;;;4.30;1.50;;;7.90;95.00;;;;;;4993229;28;20660;-67
2022/05/18 02:03:17;;;;;;;2.53;1.40;;;7.80;95.20;;;;;;4993056;28;20261;-68
2022/05/18 02:06:06;;;;;;;2.97;1.50;;;7.90;95.20;;;;;;4994031;28;20230;-68
2022/05/18 02:08:55;;;;;;;2.20;1.27;;;7.90;95.90;;;;;;5003321;28;20296;-68
2022/05/18 02:11:44;;;;;;;5.27;1.63;;;8.00;95.70;;;;;;4992398;28;20273;-69
2022/05/18 02:14:33;;;;;;;4.50;1.40;;;8.00;96.20;;;;;;4994086;28;20215;-68
2022/05/18 02:17:22;;;;;;;2.27;1.50;;;7.90;96.60;;;;;;4997655;28;20228;-67
2022/05/18 02:20:13;;;;;;;6.27;1.30;;;8.00;96.30;;;;;;4994197;28;20219;-68
2022/05/18 02:23:02;;;;;;;3.67;1.40;;;7.80;97.20;;;;;;4989416;28;20237;-67
2022/05/18 02:25:51;;;;;;;2.83;1.40;;;7.70;97.80;;;;;;4994469;28;20248;-69
2022/05/18 02:28:40;;;;;;;3.63;1.60;;;7.70;98.30;;;;;;4992020;28;20499;-69
2022/05/18 02:31:29;;;;;;;3.07;1.40;;;7.60;99.10;;;;;;5003620;28;20233;-68
2022/05/18 02:34:17;;;;;;;3.87;1.50;;;7.70;99.30;;;;;;4995711;28;20226;-69
2022/05/18 02:37:07;;;;;;;5.27;1.57;;;7.70;99.40;;;;;;4993810;28;20334;-68
2022/05/18 02:39:56;;;;;;;4.03;1.70;;;7.50;99.90;;;;;;4989031;28;20237;-69
2022/05/18 02:42:45;;;;;;;3.30;1.53;;;7.60;99.90;;;;;;4994764;28;20554;-67
2022/05/18 02:45:34;;;;;;;4.17;1.60;;;7.60;99.90;;;;;;4996276;28;20226;-69
2022/05/18 02:48:23;;;;;;;5.27;1.80;;;7.40;99.90;;;;;;4996070;28;21009;-68
2022/05/18 02:51:13;;;;;;;3.27;1.47;;;7.40;99.90;;;;;;4992788;28;20226;-68
2022/05/18 02:56:05;;;;;;;3.20;1.60;;;7.40;99.90;;;;;;4992170;28;20535;-69
2022/05/18 02:57:21;;;;;;;2.33;1.40;;;7.40;99.90;;;;;;4993341;28;20218;-67
2022/05/18 03:00:14;;;;;;;6.00;1.90;;;7.40;99.90;;;;;;4992329;28;20223;-68
2022/05/18 03:03:03;;;;;;;3.00;2.40;;;7.20;99.90;;;;;;4990561;28;20745;-68
2022/05/18 03:05:55;;;;;;;2.60;1.70;;;7.30;99.90;;;;;;4994661;28;20228;-69
2022/05/18 03:08:45;;;;;;;4.40;1.70;;;7.30;99.90;;;;;;5008327;28;20305;-69
2022/05/18 03:11:35;;;;;;;3.60;1.47;;;7.40;99.90;;;;;;5004777;28;20994;-68
2022/05/18 03:14:24;;;;;;;5.57;1.60;;;7.50;99.90;;;;;;5003959;28;20360;-69
2022/05/18 03:17:13;;;;;;;4.20;1.63;;;7.40;99.90;;;;;;4995864;28;20218;-68
2022/05/18 03:20:02;;;;;;;4.23;1.50;;;7.30;99.90;;;;;;4994659;28;20252;-68
2022/05/18 03:25:56;;;;;;;2.27;1.50;;;7.50;99.90;;;;;;4994433;28;20222;-68
2022/05/18 03:28:50;;;;;;;3.43;1.70;;;7.20;99.90;;;;;;5005256;28;20559;-68
2022/05/18 03:31:39;;;;;;;4.17;1.60;;;7.60;99.90;;;;;;4992847;28;20233;-68
2022/05/18 03:34:28;;;;;;;6.97;1.77;;;7.70;99.90;;;;;;4993191;28;20221;-69
2022/05/18 03:37:16;;;;;;;3.50;1.50;;;7.70;99.90;;;;;;4994022;28;20649;-69
2022/05/18 03:40:06;;;;;;;4.17;1.97;;;7.60;99.90;;;;;;4993657;28;20265;-67
2022/05/18 03:42:58;;;;;;;3.87;1.90;;;7.70;99.90;;;;;;4995338;28;20238;-68
2022/05/18 03:45:49;;;;;;;5.60;1.77;;;7.40;99.90;;;;;;4999759;28;20316;-67
2022/05/18 03:48:38;;;;;;;6.00;1.60;;;7.70;99.90;;;;;;4989269;28;20249;-68
2022/05/18 03:51:28;;;;;;;3.73;1.90;;;7.70;99.90;;;;;;4991225;28;20242;-68
2022/05/18 03:54:17;;;;;;;6.93;1.90;;;7.50;99.90;;;;;;4992578;28;20225;-68
2022/05/18 03:57:10;;;;;;;3.67;1.60;;;7.30;99.90;;;;;;4989054;28;20223;-68
2022/05/18 03:59:58;;;;;;;5.00;2.00;;;7.40;99.90;;;;;;4993476;28;21177;-68
2022/05/18 04:02:48;;;;;;;5.70;2.00;;;7.30;99.90;;;;;;4980820;28;20227;-68
2022/05/18 04:05:38;;;;;;;3.10;1.60;;;7.50;99.90;;;;;;4992167;28;20214;-69
2022/05/18 04:08:27;;;;;;;2.30;1.53;;;7.40;99.90;;;;;;4988104;28;20222;-69
2022/05/18 04:11:16;;;;;;;5.53;2.03;;;7.50;99.90;;;;;;4991456;28;20562;-68
2022/05/18 04:14:05;;;;;;;4.00;2.00;;;7.70;99.90;;;;;;4992244;28;20226;-69
2022/05/18 04:16:53;;;;;;;3.70;1.70;;;7.70;99.90;;;;;;4989257;28;20235;-68
2022/05/18 04:19:43;;;;;;;2.43;1.50;;;7.40;99.90;;;;;;4988903;28;20709;-68
2022/05/18 04:22:33;;;;;;;5.63;1.77;;;7.70;99.90;;;;;;4989157;28;20249;-69
2022/05/18 04:25:25;;;;;;;3.70;1.57;;;7.60;99.90;;;;;;4991666;28;20247;-68
2022/05/18 04:28:14;;;;;;;3.07;1.73;;;7.60;99.90;;;;;;4991542;28;20227;-68
2022/05/18 04:31:04;;;;;;;3.57;1.67;;;7.90;99.90;;;;;;5004556;28;20283;-67
2022/05/18 04:33:53;;;;;;;3.43;1.70;;;8.00;99.90;;;;;;4990239;28;20663;-67
2022/05/18 04:36:43;;;;;;;4.70;1.53;;;8.10;99.90;;;;;;4990451;28;20765;-67
2022/05/18 04:39:32;;;;;;;5.77;1.87;;;8.30;99.90;;;;;;4990441;28;20598;-68
2022/05/18 04:42:24;;;;;;;3.03;1.60;;;7.90;99.90;;;;;;4990505;28;20717;-68
2022/05/18 04:45:15;;;;;;;2.07;1.60;;;8.10;99.90;;;;;;5004232;28;20230;-68
2022/05/18 04:48:08;;;;;;;5.27;2.10;;;8.00;99.90;;;;;;4992518;28;20222;-70
2022/05/18 04:50:57;;;;;;;5.23;2.43;;;7.80;99.90;;;;;;4990080;28;20226;-68
2022/05/18 04:53:47;;;;;;;6.57;1.90;;;7.90;99.90;;;;;;4986971;28;25136;-69
2022/05/18 04:56:39;;;;;;;4.23;1.80;;;7.80;99.90;;;;;;4989411;28;20224;-69
2022/05/18 04:59:28;;;;;;;5.07;1.87;;;8.00;99.90;;;;;;4993384;28;20237;-69
2022/05/18 05:02:18;;;;;;;3.13;1.87;;;8.20;99.90;;;;;;4991530;28;20329;-68
2022/05/18 05:05:09;;;;;;;3.80;1.73;;;8.20;99.90;;;;;;4994137;28;20599;-68
2022/05/18 05:07:58;;;;;;;5.57;2.20;;;8.20;99.90;;;;;;4993831;28;20233;-69
2022/05/18 05:10:49;;;;;;;4.83;1.93;;;8.10;99.90;;;;;;4994345;28;20225;-70
2022/05/18 05:13:37;;;;;;;4.97;1.90;;;8.00;99.90;;;;;;4993008;28;20226;-70
2022/05/18 05:16:28;;;;;;;6.17;1.90;;;8.20;99.90;;;;;;5004799;28;20224;-68
2022/05/18 05:19:18;;;;;;;5.33;2.10;;;8.40;99.90;;;;;;4994653;28;21102;-68
2022/05/18 05:22:06;;;;;;;7.70;2.10;;;8.80;99.90;;;;;;4994086;28;20323;-72
2022/05/18 05:24:55;;;;;;;8.53;1.83;;;9.20;99.90;;;;;;4994210;28;20230;-68
2022/05/18 05:27:45;;;;;;;7.93;2.13;;;9.50;99.90;;;;;;4988801;28;20233;-69
2022/05/18 05:30:33;;;;;;;5.47;2.40;;;9.20;99.90;;;;;;4992488;28;20233;-71
2022/05/18 05:33:22;;;;;;;7.33;2.63;;;9.00;99.90;;;;;;4997647;28;20226;-69
2022/05/18 05:36:18;;;;;;;9.57;3.40;;;9.10;99.90;;;;;;4997158;28;20305;-69
2022/05/18 05:39:06;;;;;;;9.90;2.63;;;8.90;99.90;;;;;;4994936;28;20246;-68
2022/05/18 05:41:55;;;;;;;6.47;2.30;;;9.20;99.90;;;;;;5006533;28;20550;-69
2022/05/18 05:44:45;;;;;;;4.77;1.90;;;9.10;99.90;;;;;;4994947;28;20230;-69
2022/05/18 05:47:34;;;;;;;9.10;2.30;;;9.10;99.90;;;;;;4998812;28;20759;-69
2022/05/18 05:50:22;;;;;;;4.97;2.10;;;9.70;99.90;;;;;;4994274;28;20265;-68
2022/05/18 05:53:11;;;;;;;5.07;2.17;;;10.30;99.30;;;;;;5010496;28;20229;-69
2022/05/18 05:56:00;;;;;;;5.63;2.20;;;11.30;95.60;;;;;;4999631;28;20719;-68
2022/05/18 05:58:50;;;;;;;4.55;2.35;;;11.70;91.60;;;;;;4997833;28;20225;-70
2022/05/18 06:01:40;;;;;;;5.50;2.40;;;11.70;91.20;;;;;;4990637;28;20222;-70
2022/05/18 06:04:33;;;;;;;6.38;2.50;;;11.60;91.10;;;;;;4995194;28;20686;-71
2022/05/18 06:07:22;;;;;;;5.00;2.58;;;11.40;91.50;;;;;;5006580;28;20256;-68
2022/05/18 06:10:11;;;;;;;5.70;2.70;;;11.30;91.50;;;;;;4991781;28;20223;-69
2022/05/18 06:13:00;;;;;;;5.35;2.38;;;11.40;92.10;;;;;;5006052;28;20241;-69
2022/05/18 06:15:49;;;;;;;4.88;2.22;;;10.90;92.20;;;;;;4986489;28;20234;-69
2022/05/18 06:18:43;;;;;;;8.35;2.92;;;11.00;92.20;;;;;;4992879;28;20338;-70
2022/05/18 06:21:32;;;;;;;8.45;2.58;;;11.10;92.10;;;;;;5010983;28;20214;-70
2022/05/18 06:24:21;;;;;;;10.00;2.38;;;11.10;92.30;;;;;;4994995;28;20230;-70
2022/05/18 06:27:09;;;;;;;7.10;2.17;;;11.30;92.70;;;;;;5001908;28;20240;-71
2022/05/18 06:29:58;;;;;;;4.00;2.33;;;11.30;91.50;;;;;;4995616;28;20232;-70
2022/05/18 06:32:46;;;;;;;7.30;2.25;;;11.20;91.10;;;;;;4997347;28;20308;-69
2022/05/18 06:35:40;;;;;;;6.50;2.60;;;11.00;91.60;;;;;;4997568;28;20218;-70
2022/05/18 06:38:29;;;;;;;9.00;2.47;;;11.00;91.50;;;;;;5000031;28;20218;-68
2022/05/18 06:41:24;;;;;;;8.15;2.15;;;11.30;91.20;;;;;;4992598;28;20669;-68
2022/05/18 06:44:14;;;;;;;10.18;2.08;;;11.70;90.10;;;;;;5007779;28;20231;-70
2022/05/18 06:47:05;;;;;;;6.40;2.42;;;11.60;88.70;;;;;;4998479;28;20268;-70
2022/05/18 06:49:54;;;;;;;5.55;2.20;;;11.60;89.00;;;;;;4996712;28;20751;-68
2022/05/18 06:52:45;;;;;;;3.83;1.80;;;11.90;88.60;;;;;;5005047;28;20235;-70
2022/05/18 06:55:34;;;;;;;7.78;1.90;;;12.00;85.00;;;;;;5005795;28;20222;-69
2022/05/18 06:58:42;;;;;;;10.15;1.80;;;11.70;85.40;;;;;;4996740;28;20222;-70
2022/05/18 07:01:37;;;;;;;5.45;1.80;;;12.20;84.60;;;;;;4988229;28;20229;-71
2022/05/18 07:04:26;;;;;;;7.85;1.60;;;12.40;83.50;;;;;;4984838;28;20234;-69
2022/05/18 07:07:15;;;;;;;6.07;1.75;;;12.70;80.50;;;;;;5006010;28;20218;-70
2022/05/18 07:10:06;;;;;;;6.55;1.60;;;13.00;79.50;;;;;;4996435;28;20252;-70
2022/05/18 07:12:56;;;;;;;6.72;1.60;;;12.60;79.40;;;;;;4994044;28;20229;-71
2022/05/18 07:15:46;;;;;;;4.63;1.60;;;13.00;77.10;;;;;;4997563;28;20633;-70
2022/05/18 07:18:35;;;;;;;7.00;1.70;;;13.60;74.30;;;;;;4992445;28;20234;-71
2022/05/18 07:21:25;;;;;;;5.13;1.90;;;13.40;73.40;;;;;;5010120;28;20233;-72
2022/05/18 07:24:15;;;;;;;6.25;1.65;;;13.50;73.50;;;;;;4999883;28;20232;-70
2022/05/18 07:27:09;;;;;;;2.22;1.55;;;13.50;74.50;;;;;;4993977;28;20290;-71
2022/05/18 07:29:58;;;;;;;2.78;1.48;;;13.70;72.90;;;;;;5015538;28;20225;-71
2022/05/18 07:32:47;;;;;;;11.45;1.73;;;14.90;70.30;;;;;;4995258;28;20227;-71
2022/05/18 07:35:36;;;;;;;7.20;1.60;;;14.70;69.30;;;;;;4996080;28;20276;-71
2022/05/18 07:38:30;;;;;;;5.57;1.67;;;14.60;68.90;;;;;;5013754;28;20292;-70
2022/05/18 07:41:27;;;;;;;4.80;1.30;;;15.20;67.10;;;;;;4995906;28;20228;-70
2022/05/18 07:44:17;;;;;;;5.22;1.80;;;16.70;66.30;;;;;;4998860;28;20954;-70
2022/05/18 07:47:06;;;;;;;7.97;1.80;;;17.30;62.20;;;;;;4997356;28;20219;-71
2022/05/18 07:49:56;;;;;;;4.65;1.60;;;17.70;63.00;;;;;;4995029;28;20229;-69
2022/05/18 07:52:45;;;;;;;4.03;1.70;;;18.90;58.80;;;;;;4992685;28;20791;-73
2022/05/18 07:55:35;;;;;;;7.70;1.75;;;19.90;57.10;;;;;;4994412;28;20226;-71
2022/05/18 07:58:24;;;;;;;5.82;1.55;;;19.90;57.10;;;;;;4997743;28;20376;-72
2022/05/18 09:37:34;;;;;;;4.32;1.70;;;32.30;34.10;;;;;;5067690;27;21174;-71
2022/05/18 09:40:28;;;;;;;3.67;1.70;;;32.70;33.50;;;;;;5062012;28;20212;-71
2022/05/18 09:43:26;;;;;;;3.05;1.42;;;33.90;32.70;;;;;;5091623;28;20230;-71
2022/05/18 09:46:19;;;;;;;6.13;1.75;;;32.50;32.90;;;;;;5102654;27;20313;-72
2022/05/18 09:49:15;;;;;;;4.88;1.63;;;32.60;32.70;;;;;;5102254;27;20699;-71
2022/05/18 09:52:05;;;;;;;5.22;1.48;;;32.80;32.60;;;;;;5105467;27;20275;-72
2022/05/18 09:54:59;;;;;;;2.85;1.70;;;32.30;32.60;;;;;;5108387;27;20237;-70
2022/05/18 09:57:54;;;;;;;5.18;1.80;;;31.20;34.00;;;;;;5105252;27;20677;-72
2022/05/18 10:00:49;;;;;;;4.22;1.60;;;31.00;34.40;;;;;;5085725;27;20380;-70
2022/05/18 10:07:30;;;;;;;7.28;1.70;;;29.40;35.60;;;;;;5110602;28;20246;-69
2022/05/18 10:10:28;;;;;;;5.13;1.50;;;27.80;36.50;;;;;;5100635;28;20218;-70
2022/05/18 10:13:21;;;;;;;3.22;1.45;;;27.20;36.50;;;;;;5099017;28;20723;-70
2022/05/18 10:16:39;;;;;;;5.70;1.60;;;27.10;36.40;;;;;;5097353;27;20218;-71
2022/05/18 10:19:32;;;;;;;5.43;1.70;;;26.90;37.20;;;;;;5100178;28;20360;-70
2022/05/18 10:22:25;;;;;;;5.10;1.50;;;26.30;38.30;;;;;;5096473;28;20233;-70
2022/05/18 10:25:30;;;;;;;5.10;1.30;;;29.10;37.30;;;;;;5099033;27;20435;-71
2022/05/18 10:28:22;;;;;;;4.53;1.73;;;29.90;35.50;;;;;;5110214;27;20245;-71
2022/05/18 10:31:26;;;;;;;2.30;1.13;;;30.20;35.40;;;;;;5095486;27;20238;-71
2022/05/18 10:34:24;;;;;;;5.53;1.20;;;30.40;34.90;;;;;;5094561;27;20878;-72
2022/05/18 10:37:23;;;;;;;5.70;1.50;;;30.40;34.90;;;;;;5098947;27;20237;-71
2022/05/18 10:40:19;;;;;;;4.13;1.50;;;30.80;35.30;;;;;;5098197;27;20589;-71
2022/05/18 10:43:27;;;;;;;3.63;1.25;;;30.50;35.20;;;;;;5098667;27;20291;-71
2022/05/18 10:46:40;;;;;;;2.90;1.30;;;32.00;35.00;;;;;;5093713;27;20214;-70
2022/05/18 10:49:34;;;;;;;2.15;1.33;;;30.70;33.10;;;;;;5079613;28;20318;-71
2022/05/18 10:52:33;;;;;;;6.28;1.45;;;30.30;34.20;;;;;;5095104;28;20275;-70
2022/05/18 10:55:23;;;;;;;4.38;1.50;;;32.40;33.80;;;;;;5093955;28;20223;-70
2022/05/18 10:58:28;;;;;;;5.85;1.40;;;32.90;33.00;;;;;;5086100;28;20275;-70
2022/05/18 11:01:22;;;;;;;4.18;1.50;;;33.90;32.30;;;;;;5082745;28;20222;-71
2022/05/18 11:04:17;;;;;;;6.93;1.45;;;34.80;31.60;;;;;;5096385;28;20222;-71
2022/05/18 11:07:08;;;;;;;1.92;1.30;;;34.50;31.20;;;;;;5094263;28;20215;-71
2022/05/18 11:09:57;;;;;;;3.90;1.30;;;32.30;31.30;;;;;;5084382;28;20419;-76
2022/05/18 11:12:51;;;;;;;1.83;1.10;;;33.30;31.50;;;;;;5082918;28;20217;-73
2022/05/18 11:15:51;;;;;;;5.13;1.30;;;32.10;31.20;;;;;;5085116;28;20614;-72
2022/05/18 11:33:39;;;;;;;1.42;0.98;;;35.40;29.60;;;;;;5042403;27;20570;-71
2022/05/18 11:36:38;;;;;;;1.33;1.13;;;35.90;29.90;;;;;;5057082;28;20226;-72
2022/05/18 11:39:33;;;;;;;1.58;1.10;;;35.50;30.00;;;;;;5050024;28;20220;-72
2022/05/18 11:42:26;;;;;;;6.13;1.48;;;35.90;29.60;;;;;;5041085;28;21664;-71
2022/05/18 11:45:24;;;;;;;4.10;1.13;;;36.20;29.00;;;;;;5034253;28;20342;-71
2022/05/18 11:48:24;;;;;;;3.63;1.20;;;36.70;27.90;;;;;;5032680;28;20319;-72
2022/05/18 11:51:26;;;;;;;2.03;1.00;;;34.90;28.70;;;;;;5033110;28;20315;-69
2022/05/18 11:54:29;;;;;;;2.72;1.20;;;34.10;28.70;;;;;;5048253;28;20311;-72
2022/05/18 11:57:30;;;;;;;5.05;1.20;;;33.00;28.80;;;;;;5037810;28;20347;-73
2022/05/18 12:00:44;;;;;;;4.53;1.27;;;33.50;28.80;;;;;;5055177;28;20799;-74
2022/05/18 12:04:01;;;;;;;2.92;1.20;;;34.90;29.00;;;;;;5048055;28;20219;-71
2022/05/18 12:07:04;;;;;;;2.70;1.30;;;34.70;28.30;;;;;;5056124;28;20532;-72
2022/05/18 12:10:07;;;;;;;5.28;1.42;;;34.50;29.10;;;;;;5056850;28;20238;-72
2022/05/18 12:13:02;;;;;;;4.20;1.45;;;34.90;28.90;;;;;;5055589;28;20228;-70
2022/05/18 12:15:57;;;;;;;7.43;1.45;;;35.70;28.50;;;;;;5042750;28;20224;-71
2022/05/18 12:18:51;;;;;;;4.38;1.40;;;36.10;27.70;;;;;;5042374;28;20619;-70
2022/05/18 12:21:44;;;;;;;2.95;1.30;;;36.00;27.90;;;;;;5040680;28;20267;-71
2022/05/18 12:24:35;;;;;;;3.60;1.10;;;33.80;27.40;;;;;;5052805;28;20294;-72
2022/05/18 12:27:29;;;;;;;6.75;1.33;;;32.30;28.70;;;;;;5041504;28;20606;-73
2022/05/18 12:30:21;;;;;;;7.45;1.85;;;32.20;28.90;;;;;;5060723;28;20247;-73
2022/05/18 12:33:15;;;;;;;2.55;1.20;;;32.90;29.50;;;;;;5039663;28;20235;-73
2022/05/18 12:36:15;;;;;;;2.70;1.08;;;32.60;29.00;;;;;;5056106;28;20685;-72
2022/05/18 12:39:16;;;;;;;6.13;1.20;;;31.00;29.60;;;;;;5051877;28;20224;-72
2022/05/18 12:42:14;;;;;;;5.80;1.08;;;29.20;30.00;;;;;;5057872;28;20590;-71
2022/05/18 12:45:09;;;;;;;6.72;1.30;;;28.30;31.00;;;;;;5040656;28;20725;-73
2022/05/18 12:48:13;;;;;;;2.00;1.05;;;27.70;31.60;;;;;;5040639;28;20697;-71
2022/05/18 12:51:15;;;;;;;5.57;1.42;;;26.60;32.50;;;;;;5031766;28;20726;-71
2022/05/18 12:54:17;;;;;;;6.90;2.33;;;25.20;34.00;;;;;;5042410;28;20597;-72
2022/05/18 12:57:23;;;;;;;4.97;1.30;;;25.20;33.50;;;;;;5040650;28;20231;-74
2022/05/18 13:00:43;;;;;;;3.60;1.20;;;25.50;33.50;;;;;;5028853;28;20235;-74
2022/05/18 13:04:00;;;;;;;7.50;1.50;;;24.80;34.50;;;;;;5032098;28;20233;-73
2022/05/18 13:06:50;;;;;;;6.10;1.15;;;24.50;35.40;;;;;;5039835;28;20544;-72
2022/05/18 13:09:40;;;;;;;3.22;1.10;;;24.10;36.30;;;;;;5026190;28;20244;-73
2022/05/18 13:12:58;;;;;;;3.80;1.20;;;24.00;36.20;;;;;;5035253;28;20233;-75
2022/05/18 13:15:58;;;;;;;8.65;1.30;;;23.10;36.50;;;;;;5022069;28;20220;-74
2022/05/18 13:19:00;;;;;;;2.30;1.00;;;22.90;36.20;;;;;;5041267;28;20233;-74
2022/05/18 13:21:53;;;;;;;2.45;1.10;;;23.20;34.20;;;;;;5036551;28;20564;-73
2022/05/18 13:24:45;;;;;;;2.92;0.85;;;23.00;33.70;;;;;;5044493;28;20702;-73
2022/05/18 13:27:44;;;;;;;2.00;1.00;;;23.10;34.10;;;;;;5012320;28;20217;-73
2022/05/18 13:30:42;;;;;;;2.03;0.93;;;22.20;34.90;;;;;;5026748;28;20229;-73
2022/05/18 13:33:55;;;;;;;8.43;1.20;;;22.30;36.20;;;;;;5034337;28;20224;-73
2022/05/18 13:36:52;;;;;;;4.15;2.35;;;22.70;36.40;;;;;;5041878;28;20279;-72
2022/05/18 13:39:46;;;;;;;1.90;1.30;;;22.70;36.70;;;;;;5028906;28;20236;-74
2022/05/18 13:42:36;;;;;;;3.83;1.10;;;22.70;36.10;;;;;;5027269;28;20374;-74
2022/05/18 13:45:28;;;;;;;2.42;1.10;;;22.70;36.00;;;;;;5032722;28;20227;-73
2022/05/18 13:48:21;;;;;;;4.25;1.05;;;22.50;35.30;;;;;;5026225;28;20228;-75
2022/05/18 13:51:34;;;;;;;5.18;1.05;;;22.10;36.40;;;;;;5035190;28;20217;-72
2022/05/18 13:54:27;;;;;;;2.95;1.08;;;22.10;36.10;;;;;;5035973;28;20740;-71
2022/05/18 13:57:20;;;;;;;2.97;1.40;;;21.70;36.90;;;;;;5032268;28;20794;-75
2022/05/18 14:00:20;;;;;;;1.88;1.13;;;21.80;37.70;;;;;;5022297;28;20265;-76
2022/05/18 14:03:14;;;;;;;3.90;0.95;;;22.00;37.60;;;;;;5030271;28;20308;-78
2022/05/18 14:06:21;;;;;;;3.75;0.95;;;21.90;38.30;;;;;;5032763;28;20248;-77
2022/05/18 14:09:24;;;;;;;2.42;1.13;;;21.80;38.10;;;;;;5029172;28;20688;-71
2022/05/18 14:12:15;;;;;;;4.30;1.15;;;21.70;38.50;;;;;;5040565;28;20243;-70
2022/05/18 14:15:20;;;;;;;5.70;1.15;;;21.30;39.30;;;;;;5025915;28;20255;-70
2022/05/18 14:18:17;;;;;;;4.68;1.15;;;21.30;39.60;;;;;;5040973;28;20328;-73
2022/05/18 14:21:29;;;;;;;3.58;1.30;;;21.10;39.70;;;;;;5038605;28;22829;-71
2022/05/18 14:24:21;;;;;;;4.57;1.33;;;21.50;40.10;;;;;;5024870;28;20256;-73
2022/05/18 14:27:14;;;;;;;2.03;1.10;;;21.00;40.00;;;;;;5040783;28;20703;-72
2022/05/18 14:30:06;;;;;;;4.82;1.50;;;21.00;40.30;;;;;;5024966;28;20220;-70
2022/05/18 14:33:29;;;;;;;3.22;0.93;;;21.30;39.90;;;;;;5007896;28;20229;-72
2022/05/18 14:36:27;;;;;;;2.97;1.30;;;20.80;39.60;;;;;;5025763;28;20224;-71
2022/05/18 14:39:26;;;;;;;3.53;1.17;;;20.50;40.70;;;;;;5036860;28;20225;-69
2022/05/18 14:42:16;;;;;;;2.45;1.27;;;20.80;40.80;;;;;;5023797;28;20592;-69
2022/05/18 14:45:08;;;;;;;4.95;1.02;;;20.60;40.80;;;;;;5028084;28;20710;-70
2022/05/18 14:48:07;;;;;;;3.28;1.10;;;20.50;41.00;;;;;;5034329;28;20225;-68
2022/05/18 14:51:13;;;;;;;3.72;1.05;;;20.20;41.80;;;;;;5029389;28;20710;-69
2022/05/18 14:54:13;;;;;;;2.78;1.10;;;20.50;41.70;;;;;;5030184;28;20232;-68
2022/05/18 14:57:10;;;;;;;4.97;1.08;;;20.70;41.30;;;;;;5038077;28;20552;-68
2022/05/18 15:00:04;;;;;;;2.17;1.27;;;20.70;40.50;;;;;;5015566;28;20225;-70
2022/05/18 15:02:59;;;;;;;5.10;1.35;;;20.80;40.70;;;;;;5034224;28;20899;-68
2022/05/18 15:05:50;;;;;;;6.72;1.40;;;20.80;40.70;;;;;;5039647;28;20254;-69
2022/05/18 15:08:45;;;;;;;2.65;1.23;;;20.70;40.90;;;;;;5037434;28;20217;-69
2022/05/18 15:11:40;;;;;;;3.25;1.13;;;20.20;41.20;;;;;;5026493;28;20684;-69
2022/05/18 15:14:56;;;;;;;5.25;1.60;;;20.40;41.60;;;;;;5042087;28;20220;-68
2022/05/18 15:17:47;;;;;;;4.10;1.27;;;20.70;41.80;;;;;;5026618;28;20263;-70
2022/05/18 15:20:42;;;;;;;5.72;1.15;;;20.80;41.30;;;;;;5023844;28;20235;-70
2022/05/18 15:23:40;;;;;;;4.53;1.00;;;20.70;41.40;;;;;;5014645;28;20224;-68
2022/05/18 15:26:34;;;;;;;3.40;1.20;;;20.40;41.30;;;;;;5031591;28;20217;-69
2022/05/18 15:29:30;;;;;;;3.88;1.02;;;20.50;41.30;;;;;;5022654;28;20690;-71
2022/05/18 15:32:26;;;;;;;4.43;1.05;;;20.30;41.80;;;;;;5006595;28;20237;-68
2022/05/18 15:35:20;;;;;;;3.67;1.10;;;19.90;41.90;;;;;;4998469;28;20231;-68
2022/05/18 15:38:08;;;;;;;3.15;1.20;;;19.80;42.40;;;;;;4997290;28;20213;-67
2022/05/18 15:40:57;;;;;;;2.90;1.23;;;19.80;42.30;;;;;;5009800;28;20233;-67
2022/05/18 15:43:46;;;;;;;5.97;1.35;;;19.90;42.60;;;;;;5003445;28;20653;-67
2022/05/18 15:46:39;;;;;;;3.17;1.20;;;20.10;42.40;;;;;;4997472;28;20596;-67
2022/05/18 15:49:41;;;;;;;6.80;1.45;;;20.10;42.80;;;;;;4995569;28;20225;-68
2022/05/18 15:52:32;;;;;;;3.67;1.30;;;19.90;43.00;;;;;;5018861;28;20649;-67
2022/05/18 15:55:25;;;;;;;2.60;1.00;;;20.10;43.20;;;;;;5017365;28;20584;-68
2022/05/18 15:58:14;;;;;;;2.78;1.10;;;20.20;42.70;;;;;;4998682;28;20220;-67
2022/05/18 16:01:02;;;;;;;1.67;1.20;;;20.20;42.20;;;;;;5017234;28;20232;-67
2022/05/18 16:03:52;;;;;;;5.10;1.27;;;20.20;42.20;;;;;;5015096;28;20213;-67
2022/05/18 16:06:43;;;;;;;3.88;1.42;;;20.20;42.20;;;;;;5007257;28;20239;-68
2022/05/18 16:09:35;;;;;;;4.82;1.73;;;20.20;42.00;;;;;;5021216;28;20229;-68
2022/05/18 16:12:24;;;;;;;5.28;1.58;;;20.00;42.70;;;;;;4993393;28;20758;-67
2022/05/18 16:15:15;;;;;;;3.72;1.27;;;20.20;42.70;;;;;;5018753;28;20320;-69
2022/05/18 16:18:04;;;;;;;5.10;1.20;;;20.10;43.20;;;;;;5003554;28;20240;-66
2022/05/18 16:20:58;;;;;;;1.77;1.00;;;20.00;42.80;;;;;;5023372;28;20351;-68
2022/05/18 16:24:13;;;;;;;6.72;1.15;;;19.90;42.90;;;;;;5020427;28;20222;-69
2022/05/18 16:27:02;;;;;;;2.50;1.10;;;19.90;43.10;;;;;;5006493;28;20906;-67
2022/05/18 16:29:52;;;;;;;2.65;1.40;;;19.90;42.80;;;;;;5009187;28;20320;-68
2022/05/18 16:32:40;;;;;;;6.63;1.10;;;19.90;42.60;;;;;;5008314;28;20281;-68
2022/05/18 16:35:30;;;;;;;8.80;1.20;;;19.90;43.20;;;;;;5011361;28;20228;-68
2022/05/18 16:38:19;;;;;;;2.40;1.10;;;19.80;43.10;;;;;;5002528;28;20255;-68
2022/05/18 16:41:16;;;;;;;3.85;1.23;;;19.50;43.00;;;;;;5004911;28;20236;-68
2022/05/18 16:44:08;;;;;;;2.17;1.10;;;19.70;43.40;;;;;;5007894;28;20759;-68
2022/05/18 16:46:58;;;;;;;8.98;1.58;;;19.20;43.20;;;;;;5016134;28;20249;-69
2022/05/18 16:49:47;;;;;;;4.80;1.45;;;19.40;43.70;;;;;;5015876;28;20234;-66
2022/05/18 16:52:37;;;;;;;6.07;1.20;;;19.60;43.80;;;;;;5020846;28;20280;-67
2022/05/18 16:55:27;;;;;;;3.63;1.30;;;19.50;44.50;;;;;;5002190;28;20222;-68
2022/05/18 16:58:17;;;;;;;3.67;1.40;;;19.50;44.20;;;;;;4997842;28;20240;-67
2022/05/18 17:01:07;;;;;;;2.72;1.10;;;19.40;44.00;;;;;;5022521;28;20221;-67
2022/05/18 17:03:56;;;;;;;4.35;1.20;;;19.50;43.70;;;;;;5020450;28;20225;-68